Time;durP1;ratioP1;P1;durP2;ratioP2;P2;SDS_P1;SDS_P2;PMS_P1;PMS_P2;Temp;Humidity;BMP_temperature;BMP_pressure;BME280_temperature;BME280_humidity;BME280_pressure;Samples;Min_cycle;Max_cycle;Signal;HPM_P1;HPM_P2
2022/05/29 00:01:22;;;;;;;5.70;0.80;;;;;;;9.96;64.25;100016.91;52482;1274;1015890;-62
2022/05/29 00:03:52;;;;;;;4.50;0.70;;;;;;;9.91;64.35;100018.27;52582;1274;1016636;-62
2022/05/29 00:06:21;;;;;;;6.30;0.80;;;;;;;9.86;64.39;100013.94;52501;1275;1018755;-62
2022/05/29 00:08:50;;;;;;;7.00;0.80;;;;;;;9.83;64.36;100009.02;52595;1275;1016593;-62
2022/05/29 00:11:19;;;;;;;11.20;1.20;;;;;;;9.79;64.65;100007.31;52496;1276;1016518;-62
2022/05/29 00:13:49;;;;;;;7.30;0.80;;;;;;;9.75;64.58;100009.84;52584;1274;1016424;-62
2022/05/29 00:16:19;;;;;;;4.60;0.60;;;;;;;9.71;64.82;100009.65;52599;1276;1016618;-63
2022/05/29 00:18:48;;;;;;;9.20;0.80;;;;;;;9.67;64.93;100007.45;52525;1276;1016249;-62
2022/05/29 00:21:17;;;;;;;3.90;0.70;;;;;;;9.64;64.89;100007.05;52693;1275;1016377;-62
2022/05/29 00:23:49;;;;;;;8.30;0.80;;;;;;;9.60;65.12;100004.64;52551;1276;1016165;-62
2022/05/29 00:26:19;;;;;;;7.20;0.80;;;;;;;9.55;65.23;100004.27;52595;1274;1016487;-62
2022/05/29 00:28:48;;;;;;;7.50;0.90;;;;;;;9.51;65.31;100004.19;52580;1273;1016638;-62
2022/05/29 00:31:18;;;;;;;6.90;1.10;;;;;;;9.46;65.44;100005.88;52555;1276;1017164;-62
2022/05/29 00:33:47;;;;;;;9.30;0.90;;;;;;;9.42;65.51;100001.91;52572;1276;1016317;-63
2022/05/29 00:36:18;;;;;;;7.10;0.80;;;;;;;9.41;65.46;100000.32;52676;1273;1015989;-62
2022/05/29 00:38:50;;;;;;;4.40;0.60;;;;;;;9.40;65.64;100001.55;52633;1273;1016048;-61
2022/05/29 00:41:20;;;;;;;;;;;;;;;9.39;65.68;100001.70;52565;1273;1016245;-61
2022/05/29 00:44:05;;;;;;;;;;;;;;;9.35;65.72;100001.04;52610;1273;1018849;-60
2022/05/29 00:46:34;;;;;;;11.60;1.00;;;;;;;9.31;65.83;99998.05;52729;1273;1016089;-61
2022/05/29 00:49:07;;;;;;;6.70;1.00;;;;;;;9.28;65.93;100002.34;52574;1274;1016574;-61
2022/05/29 00:51:39;;;;;;;6.80;0.80;;;;;;;9.27;65.99;100003.52;52604;1275;1016361;-62
2022/05/29 00:54:09;;;;;;;5.40;0.90;;;;;;;9.26;65.99;100002.30;52649;1276;1016516;-61
2022/05/29 00:56:39;;;;;;;8.00;0.90;;;;;;;9.24;65.96;100002.50;52676;1275;1016480;-63
2022/05/29 00:59:11;;;;;;;;;;;;;;;9.20;65.98;100000.60;52709;1275;1016473;-61
2022/05/29 01:01:40;;;;;;;6.50;0.80;;;;;;;9.17;66.10;100001.88;52526;1273;1016470;-62
2022/05/29 01:04:10;;;;;;;7.40;0.90;;;;;;;9.14;66.04;99999.51;52519;1278;1016028;-62
2022/05/29 01:06:40;;;;;;;7.80;0.70;;;;;;;9.09;66.26;99995.20;52523;1275;1016256;-62
2022/05/29 01:09:11;;;;;;;9.60;0.60;;;;;;;9.05;66.42;99997.83;52597;1273;1016212;-62
2022/05/29 01:12:00;;;;;;;7.70;0.80;;;;;;;9.01;66.49;99990.63;52539;1274;1017721;-62
2022/05/29 01:14:46;;;;;;;8.10;0.90;;;;;;;8.99;66.57;99994.27;52515;1274;1018212;-62
2022/05/29 01:17:27;;;;;;;11.00;0.80;;;;;;;8.97;66.60;99993.02;52604;1273;1016242;-62
2022/05/29 01:20:22;;;;;;;5.10;0.80;;;;;;;8.94;66.66;99991.73;52510;1275;1016389;-62
2022/05/29 01:23:24;;;;;;;5.70;0.80;;;;;;;8.89;66.73;99991.84;52527;1275;1016719;-62
2022/05/29 01:26:28;;;;;;;3.80;0.60;;;;;;;8.85;66.86;99987.02;52585;1276;1015938;-62
2022/05/29 01:28:59;;;;;;;7.30;1.00;;;;;;;8.83;66.87;99981.13;52588;1274;1016281;-62
2022/05/29 01:31:45;;;;;;;7.10;0.80;;;;;;;8.80;66.92;99978.63;52624;1274;1015726;-62
2022/05/29 01:34:29;;;;;;;7.00;0.80;;;;;;;8.77;67.03;99980.65;52623;1273;1016539;-62
2022/05/29 01:37:11;;;;;;;8.10;0.80;;;;;;;8.74;67.11;99982.55;52638;1273;1018303;-62
2022/05/29 01:39:49;;;;;;;7.90;0.80;;;;;;;8.70;67.07;99983.79;52655;1273;1016061;-62
2022/05/29 01:42:26;;;;;;;9.40;1.20;;;;;;;8.67;67.27;99984.61;52573;1274;1016381;-62
2022/05/29 01:45:00;;;;;;;8.80;1.80;;;;;;;8.62;67.40;99983.23;52636;1273;1019078;-62
2022/05/29 01:47:33;;;;;;;8.00;1.00;;;;;;;8.58;67.53;99978.45;52529;1275;1016818;-62
2022/05/29 01:50:06;;;;;;;9.30;1.00;;;;;;;8.53;67.55;99975.16;52542;1276;1016468;-61
2022/05/29 01:52:39;;;;;;;5.40;0.50;;;;;;;8.51;67.58;99975.66;52581;1273;1017382;-61
2022/05/29 01:55:13;;;;;;;6.10;0.60;;;;;;;8.48;67.64;99974.54;52630;1273;1018880;-62
2022/05/29 01:57:48;;;;;;;5.90;0.70;;;;;;;8.47;67.66;99974.71;52539;1275;1016325;-63
2022/05/29 02:00:21;;;;;;;3.90;0.70;;;;;;;8.45;67.67;99979.01;52675;1273;1016580;-62
2022/05/29 02:02:55;;;;;;;6.80;0.80;;;;;;;8.41;67.85;99975.98;52683;1274;1016300;-62
2022/05/29 02:05:28;;;;;;;7.90;0.80;;;;;;;8.38;67.81;99976.86;52644;1274;1016593;-62
2022/05/29 02:08:04;;;;;;;10.40;0.80;;;;;;;8.35;67.93;99978.15;52603;1274;1016438;-62
2022/05/29 02:10:39;;;;;;;7.20;1.40;;;;;;;8.31;67.97;99978.80;52644;1274;1016333;-62
2022/05/29 02:13:14;;;;;;;8.40;0.70;;;;;;;8.29;68.06;99976.41;52614;1274;1016122;-62
2022/05/29 02:15:48;;;;;;;10.50;1.20;;;;;;;8.27;68.00;99979.36;52506;1275;1015980;-63
2022/05/29 02:18:25;;;;;;;6.90;1.10;;;;;;;8.24;68.08;99977.42;52641;1275;1016641;-62
2022/05/29 02:21:03;;;;;;;6.70;0.90;;;;;;;8.20;68.05;99979.52;52594;1275;1016770;-62
2022/05/29 02:23:36;;;;;;;12.70;0.70;;;;;;;8.17;68.12;99978.07;52628;1274;1017091;-61
2022/05/29 02:26:07;;;;;;;6.80;0.90;;;;;;;8.14;68.23;99978.95;52527;1275;1016265;-62
2022/05/29 02:28:39;;;;;;;9.90;1.00;;;;;;;8.12;68.15;99981.02;52638;1276;1020045;-61
2022/05/29 02:31:19;;;;;;;8.80;0.90;;;;;;;8.08;68.27;99982.20;52663;1274;1016495;-62
2022/05/29 02:33:58;;;;;;;9.60;1.20;;;;;;;8.05;68.24;99981.75;52731;1273;1016087;-62
2022/05/29 02:36:36;;;;;;;5.40;0.70;;;;;;;8.02;68.46;99988.10;52626;1273;1016659;-62
2022/05/29 02:39:23;;;;;;;5.70;0.70;;;;;;;7.99;68.60;99987.67;52557;1275;1016529;-62
2022/05/29 02:42:05;;;;;;;8.20;0.90;;;;;;;7.96;68.74;99990.80;52651;1274;1016613;-61
2022/05/29 02:44:42;;;;;;;6.40;0.80;;;;;;;7.92;68.70;99990.19;52685;1273;1016186;-61
2022/05/29 02:47:26;;;;;;;8.90;1.30;;;;;;;7.88;68.72;99986.13;52560;1274;1016655;-62
2022/05/29 02:50:30;;;;;;;7.10;0.80;;;;;;;7.83;68.77;99991.67;52578;1274;1016264;-61
2022/05/29 02:53:07;;;;;;;9.10;0.70;;;;;;;7.76;68.88;99998.16;52547;1274;1016703;-60
2022/05/29 02:55:40;;;;;;;7.40;0.70;;;;;;;7.72;68.97;99994.92;52641;1275;1016095;-62
2022/05/29 02:58:18;;;;;;;10.60;1.10;;;;;;;7.70;69.14;99987.34;52511;1278;1016351;-61
2022/05/29 03:01:10;;;;;;;6.10;1.30;;;;;;;7.67;69.22;99989.93;52560;1275;1016426;-62
2022/05/29 03:03:50;;;;;;;7.20;0.90;;;;;;;7.64;69.30;99989.96;52501;1274;1016233;-62
2022/05/29 03:06:31;;;;;;;6.00;0.90;;;;;;;7.62;69.34;99988.58;52552;1275;1016523;-62
2022/05/29 03:09:14;;;;;;;5.70;0.70;;;;;;;7.60;69.44;99990.48;52558;1274;1016447;-62
2022/05/29 03:11:46;;;;;;;7.00;1.10;;;;;;;7.59;69.54;99989.88;52714;1275;1016338;-60
2022/05/29 03:14:38;;;;;;;6.30;0.60;;;;;;;7.58;69.74;99990.98;52629;1275;1017218;-61
2022/05/29 03:17:17;;;;;;;10.60;1.10;;;;;;;7.57;69.82;99990.71;52510;1275;1016459;-61
2022/05/29 03:19:59;;;;;;;10.20;0.80;;;;;;;7.55;69.85;99987.08;52522;1274;1017417;-62
2022/05/29 03:22:40;;;;;;;7.80;0.90;;;;;;;7.53;69.91;99992.38;52551;1276;1016457;-59
2022/05/29 03:25:10;;;;;;;;;;;;;;;7.52;70.03;99991.08;52565;1277;1016246;-61
2022/05/29 03:27:41;;;;;;;;;;;;;;;7.49;70.14;99991.77;52562;1278;1015888;-62
2022/05/29 03:30:15;;;;;;;7.00;0.80;;;;;;;7.47;70.26;99994.34;52439;1277;1016479;-60
2022/05/29 03:32:45;;;;;;;6.80;0.90;;;;;;;7.46;70.38;99988.50;52398;1274;1016636;-62
2022/05/29 03:35:24;;;;;;;9.50;1.10;;;;;;;7.46;70.47;99989.67;52538;1274;1016187;-60
2022/05/29 03:37:54;;;;;;;4.10;0.90;;;;;;;7.46;70.55;99986.43;52567;1275;1016681;-61
2022/05/29 03:40:24;;;;;;;5.60;1.20;;;;;;;7.46;70.71;99983.41;52595;1274;1016642;-61
2022/05/29 03:42:54;;;;;;;11.50;1.00;;;;;;;7.46;70.78;99983.26;52652;1274;1016519;-60
2022/05/29 03:45:24;;;;;;;4.40;0.90;;;;;;;7.48;70.89;99983.81;52523;1274;1016345;-60
2022/05/29 03:47:53;;;;;;;7.60;0.80;;;;;;;7.50;71.02;99982.85;52475;1275;1016534;-60
2022/05/29 03:50:24;;;;;;;5.00;0.90;;;;;;;7.53;71.07;99982.16;52497;1276;1016783;-60
2022/05/29 03:52:54;;;;;;;3.30;0.70;;;;;;;7.56;71.19;99988.52;52536;1275;1016572;-59
2022/05/29 03:55:24;;;;;;;3.60;1.00;;;;;;;7.60;71.34;99986.45;52534;1274;1016008;-62
2022/05/29 03:57:52;;;;;;;;;;;;;;;7.64;71.37;99983.88;50536;1274;5572318;-60
2022/05/29 04:00:24;;;;;;;5.30;0.90;;;;;;;7.68;71.50;99981.94;52477;1274;1016757;-61
2022/05/29 04:02:53;;;;;;;12.50;1.00;;;;;;;7.74;71.60;99978.98;52443;1274;1016511;-59
2022/05/29 04:05:24;;;;;;;11.50;1.10;;;;;;;7.79;71.59;99982.52;52548;1274;1016689;-60
2022/05/29 04:13:38;;;;;;;11.70;1.60;;;;;;;8.01;71.72;99983.83;52539;1274;1016628;-60
2022/05/29 04:16:08;;;;;;;8.10;1.60;;;;;;;8.08;71.77;99982.70;52409;1275;1016595;-60
2022/05/29 04:18:37;;;;;;;11.40;1.00;;;;;;;8.15;71.91;99985.00;52567;1274;1015805;-59
2022/05/29 04:21:06;;;;;;;5.50;0.70;;;;;;;8.22;71.96;99985.95;52596;1274;1016651;-60
2022/05/29 04:23:36;;;;;;;13.20;1.60;;;;;;;8.30;72.11;99985.54;52499;1274;1016686;-60
2022/05/29 04:26:06;;;;;;;11.10;1.00;;;;;;;8.36;72.15;99987.46;52514;1274;1016365;-61
2022/05/29 04:28:35;;;;;;;8.10;1.00;;;;;;;8.45;72.05;99988.15;52538;1275;1016505;-60
2022/05/29 04:31:04;;;;;;;4.90;0.80;;;;;;;8.53;72.35;99986.30;52617;1274;1016635;-62
2022/05/29 04:33:34;;;;;;;8.20;1.20;;;;;;;8.62;72.18;99985.08;52647;1274;1017181;-61
2022/05/29 04:36:05;;;;;;;8.90;1.50;;;;;;;8.70;72.25;99986.98;52594;1274;1016437;-60
2022/05/29 04:38:35;;;;;;;12.70;1.40;;;;;;;8.79;72.38;99987.98;52523;1274;1016220;-60
2022/05/29 04:41:07;;;;;;;13.10;2.10;;;;;;;8.88;72.41;99988.29;52487;1275;1018642;-61
2022/05/29 04:43:37;;;;;;;6.40;0.90;;;;;;;9.00;72.43;99990.81;52639;1277;1016609;-60
2022/05/29 04:46:09;;;;;;;10.10;0.90;;;;;;;9.12;72.17;99995.77;52584;1275;1016714;-62
2022/05/29 04:48:38;;;;;;;8.80;1.00;;;;;;;9.24;71.91;99992.83;52650;1274;1018297;-60
2022/05/29 04:51:07;;;;;;;4.90;0.80;;;;;;;9.37;71.75;99994.00;52655;1274;1018984;-61
2022/05/29 04:53:37;;;;;;;9.70;1.10;;;;;;;9.49;71.50;99989.73;52566;1274;1018480;-60
2022/05/29 04:56:07;;;;;;;9.90;0.80;;;;;;;9.60;71.11;99989.52;52630;1274;1016659;-61
2022/05/29 04:58:36;;;;;;;4.90;0.60;;;;;;;9.71;71.20;99982.98;52675;1274;1016303;-61
2022/05/29 05:01:06;;;;;;;9.70;0.70;;;;;;;9.81;70.93;99980.50;52702;1274;1016045;-62
2022/05/29 05:03:35;;;;;;;9.30;0.70;;;;;;;9.92;70.54;99980.11;52646;1274;1016885;-61
2022/05/29 05:06:06;;;;;;;5.00;1.30;;;;;;;10.02;70.42;99982.11;52585;1274;1015551;-63
2022/05/29 05:08:33;;;;;;;;;;;;;;;10.11;70.37;99983.11;52629;1274;1016588;-62
2022/05/29 05:11:05;;;;;;;5.40;1.00;;;;;;;10.21;70.08;99987.77;52624;1275;1016041;-62
2022/05/29 05:13:34;;;;;;;11.50;0.90;;;;;;;10.27;69.59;99987.95;52571;1275;1016321;-62
2022/05/29 05:16:05;;;;;;;6.90;0.70;;;;;;;10.34;69.60;99990.85;52788;1274;1016585;-62
2022/05/29 05:18:36;;;;;;;11.50;1.00;;;;;;;10.41;69.57;99987.25;52709;1274;1016211;-63
2022/05/29 05:21:07;;;;;;;8.40;0.90;;;;;;;10.50;69.48;99994.03;52523;1275;1016642;-62
2022/05/29 05:23:37;;;;;;;5.30;0.70;;;;;;;10.58;69.36;99993.33;52579;1274;1016092;-62
2022/05/29 05:26:11;;;;;;;9.30;0.80;;;;;;;10.67;69.36;99994.73;52644;1273;1019420;-63
2022/05/29 05:28:40;;;;;;;9.00;0.90;;;;;;;10.76;69.26;99999.48;52639;1274;1016699;-63
2022/05/29 05:31:10;;;;;;;13.20;1.10;;;;;;;10.84;68.88;99999.65;53474;1274;1016325;-63
2022/05/29 05:33:39;;;;;;;10.70;1.20;;;;;;;10.91;68.77;99998.50;52482;1277;1016700;-62
2022/05/29 05:36:10;;;;;;;5.10;0.50;;;;;;;10.98;67.88;99999.45;53177;1274;1016537;-63
2022/05/29 05:38:40;;;;;;;8.40;0.90;;;;;;;11.03;67.98;100001.95;52523;1278;1018881;-63
2022/05/29 05:41:11;;;;;;;8.30;0.70;;;;;;;11.08;67.51;99999.12;52503;1276;1016461;-63
2022/05/29 05:43:41;;;;;;;8.30;0.90;;;;;;;11.13;67.47;100003.20;52586;1277;1016668;-63
2022/05/29 05:46:12;;;;;;;9.10;1.10;;;;;;;11.19;67.62;100000.69;52533;1277;1016619;-63
2022/05/29 05:48:43;;;;;;;10.60;1.10;;;;;;;11.28;67.48;100001.75;52519;1272;1015734;-63
2022/05/29 05:51:13;;;;;;;10.00;0.90;;;;;;;11.34;67.07;100005.94;53214;1274;1019208;-63
2022/05/29 05:53:43;;;;;;;8.80;0.80;;;;;;;11.41;66.87;100010.56;52771;1274;1016220;-63
2022/05/29 05:56:16;;;;;;;13.00;0.90;;;;;;;11.47;66.60;100009.25;52716;1274;1016400;-63
2022/05/29 05:58:46;;;;;;;8.20;0.80;;;;;;;11.54;66.26;100015.53;52607;1274;1015725;-63
2022/05/29 06:01:17;;;;;;;5.50;0.80;;;;;;;11.60;66.24;100018.20;52573;1274;1018080;-63
2022/05/29 06:03:47;;;;;;;10.00;1.00;;;;;;;11.69;66.13;100015.52;52550;1274;1016772;-64
2022/05/29 06:06:16;;;;;;;9.20;0.70;;;;;;;11.76;66.03;100017.08;53396;1274;1016055;-63
2022/05/29 06:08:46;;;;;;;5.90;0.90;;;;;;;11.85;65.83;100018.20;52488;1274;1016506;-63
2022/05/29 06:11:15;;;;;;;7.40;0.70;;;;;;;11.93;65.57;100018.67;52751;1276;1016110;-63
2022/05/29 06:13:44;;;;;;;11.30;1.10;;;;;;;11.99;64.98;100019.55;52619;1274;1016427;-64
2022/05/29 06:16:14;;;;;;;8.40;0.80;;;;;;;12.02;64.53;100016.58;52586;1273;1019110;-63
2022/05/29 06:18:43;;;;;;;11.10;1.00;;;;;;;12.08;64.95;100013.54;52678;1273;1015924;-63
2022/05/29 06:21:13;;;;;;;11.80;0.90;;;;;;;12.15;64.66;100014.21;52547;1274;1016442;-63
2022/05/29 06:23:42;;;;;;;10.30;0.80;;;;;;;12.24;64.53;100015.25;52477;1274;1016159;-64
2022/05/29 06:26:12;;;;;;;11.00;0.70;;;;;;;12.32;64.19;100012.46;52613;1274;1016592;-62
2022/05/29 06:28:41;;;;;;;;;;;;;;;12.40;64.24;100009.84;52569;1274;1016210;-63
2022/05/29 06:31:12;;;;;;;7.80;1.10;;;;;;;12.46;63.56;100011.25;52652;1273;1017179;-64
2022/05/29 06:33:42;;;;;;;10.50;0.80;;;;;;;12.53;63.90;100006.69;52636;1274;1016378;-62
2022/05/29 06:36:13;;;;;;;6.90;0.80;;;;;;;12.61;63.70;100015.95;52614;1273;1016620;-64
2022/05/29 06:38:45;;;;;;;8.00;1.50;;;;;;;12.68;63.01;100019.58;52535;1273;1016432;-64
2022/05/29 06:41:17;;;;;;;8.90;0.90;;;;;;;12.74;62.67;100015.69;52668;1273;1016220;-64
2022/05/29 06:43:46;;;;;;;8.30;1.40;;;;;;;12.78;62.12;100013.00;52659;1273;1016486;-64
2022/05/29 06:46:15;;;;;;;5.00;0.70;;;;;;;12.81;62.50;100014.30;52653;1273;1016328;-64
2022/05/29 06:48:45;;;;;;;6.90;0.90;;;;;;;12.87;62.06;100009.65;52510;1273;1018893;-63
2022/05/29 06:51:19;;;;;;;9.20;1.40;;;;;;;12.91;61.72;100011.41;52635;1273;1016933;-64
2022/05/29 06:53:50;;;;;;;9.20;0.80;;;;;;;12.93;61.75;100005.17;52535;1273;1016255;-64
2022/05/29 06:56:19;;;;;;;9.60;0.70;;;;;;;13.00;61.75;100000.61;52621;1273;1016328;-64
2022/05/29 06:58:49;;;;;;;7.50;0.80;;;;;;;13.08;61.47;100007.91;52548;1273;1016167;-64
2022/05/29 07:07:00;;;;;;;6.70;0.70;;;;;;;13.22;59.61;100006.60;52519;1273;1016302;-63
2022/05/29 07:09:33;;;;;;;7.40;0.70;;;;;;;13.21;59.38;100002.92;52440;1273;1016286;-63
2022/05/29 07:12:07;;;;;;;13.40;1.40;;;;;;;13.20;59.64;99997.42;52840;1273;1016534;-63
2022/05/29 07:14:42;;;;;;;12.00;0.70;;;;;;;13.27;59.21;100005.27;52887;1273;1016619;-63
2022/05/29 07:17:14;;;;;;;8.40;0.70;;;;;;;13.33;59.11;99999.82;52489;1276;1016277;-63
2022/05/29 07:19:44;;;;;;;14.00;0.90;;;;;;;13.43;59.43;99999.81;52453;1276;1019240;-63
2022/05/29 07:22:13;;;;;;;;;;;;;;;13.49;58.79;100002.44;52479;1274;1016646;-63
2022/05/29 07:24:43;;;;;;;7.90;0.70;;;;;;;13.54;58.30;100004.73;52578;1273;1016296;-64
2022/05/29 07:27:13;;;;;;;7.70;0.70;;;;;;;13.56;57.58;99998.36;52601;1274;1016299;-64
2022/05/29 07:29:42;;;;;;;7.50;0.50;;;;;;;13.57;57.87;99994.55;52679;1274;1015793;-63
2022/05/29 07:32:12;;;;;;;5.20;0.60;;;;;;;13.65;57.11;99999.58;52538;1274;1020272;-63
2022/05/29 07:34:43;;;;;;;;;;;;;;;13.73;56.40;100004.95;52442;1274;1015915;-63
2022/05/29 07:37:14;;;;;;;10.40;1.10;;;;;;;13.77;56.10;100005.83;52519;1274;1016659;-63
2022/05/29 07:39:47;;;;;;;6.30;0.60;;;;;;;13.80;56.16;100009.71;52523;1274;1016840;-64
2022/05/29 07:45:06;;;;;;;8.60;0.60;;;;;;;13.96;55.73;100004.83;52444;1275;1016050;-65
2022/05/29 07:47:41;;;;;;;13.30;1.00;;;;;;;14.08;55.59;100004.09;52470;1273;1016160;-64
2022/05/29 07:50:12;;;;;;;5.50;0.70;;;;;;;14.15;54.11;100005.93;52540;1273;1016838;-64
2022/05/29 07:52:41;;;;;;;5.60;0.70;;;;;;;14.19;54.17;100005.74;52611;1273;1018021;-64
2022/05/29 07:55:10;;;;;;;8.30;0.60;;;;;;;14.22;54.41;100009.31;52525;1274;1016130;-64
2022/05/29 07:57:40;;;;;;;5.60;0.60;;;;;;;14.27;54.68;100003.59;52452;1274;1019855;-63
2022/05/29 08:00:15;;;;;;;8.80;0.60;;;;;;;14.35;54.38;100007.61;52588;1274;1016823;-63
2022/05/29 08:02:44;;;;;;;6.40;0.50;;;;;;;14.36;53.80;100003.01;52719;1273;1015982;-64
2022/05/29 08:05:16;;;;;;;8.00;0.60;;;;;;;14.25;53.42;100001.30;52646;1273;1016186;-63
2022/05/29 08:07:47;;;;;;;5.60;0.60;;;;;;;14.20;53.35;99998.13;52614;1273;1019161;-62
2022/05/29 08:10:18;;;;;;;6.80;0.70;;;;;;;14.28;54.01;99995.59;52520;1273;1016177;-64
2022/05/29 08:12:48;;;;;;;6.80;0.70;;;;;;;14.38;53.59;99997.30;52630;1273;1016545;-64
2022/05/29 08:15:17;;;;;;;5.60;0.70;;;;;;;14.46;54.09;99992.99;52607;1273;1015945;-63
2022/05/29 08:17:47;;;;;;;6.70;0.90;;;;;;;14.58;53.02;99990.58;52547;1273;1016030;-63
2022/05/29 08:20:17;;;;;;;12.00;1.80;;;;;;;14.63;52.45;99988.95;52588;1274;1016140;-64
2022/05/29 08:22:46;;;;;;;8.30;0.80;;;;;;;14.62;51.92;99988.17;52684;1273;1016081;-64
2022/05/29 08:30:52;;;;;;;3.70;0.50;;;;;;;14.41;51.49;99983.15;52326;1279;1017278;-64
2022/05/29 08:33:23;;;;;;;6.90;0.60;;;;;;;14.47;51.57;99978.59;52372;1279;1016238;-63
2022/05/29 08:35:57;;;;;;;5.70;0.60;;;;;;;14.62;51.83;99975.86;52337;1279;1016506;-64
2022/05/29 08:38:27;;;;;;;6.00;0.70;;;;;;;14.83;50.82;99980.12;52423;1279;1016741;-64
2022/05/29 08:40:59;;;;;;;6.40;0.60;;;;;;;14.89;50.19;99979.54;52443;1279;1017303;-65
2022/05/29 08:43:32;;;;;;;6.50;0.60;;;;;;;14.90;49.96;99979.89;52545;1280;1016349;-65
2022/05/29 08:46:05;;;;;;;6.10;0.60;;;;;;;14.86;49.88;99982.09;52397;1279;1016489;-64
2022/05/29 08:48:35;;;;;;;6.60;0.90;;;;;;;14.76;49.25;99984.79;52474;1279;1016424;-64
2022/05/29 08:51:21;;;;;;;9.40;0.60;;;;;;;14.64;49.74;99984.15;52376;1279;1016697;-65
2022/05/29 08:54:01;;;;;;;4.50;0.60;;;;;;;14.56;49.84;99982.98;52529;1279;1016487;-65
2022/05/29 08:56:31;;;;;;;;;;;;;;;14.54;49.56;99982.58;52449;1281;1016764;-65
2022/05/29 08:59:09;;;;;;;9.40;0.90;;;;;;;14.54;49.49;99985.58;52535;1279;1016676;-65
2022/05/29 09:01:48;;;;;;;6.20;0.60;;;;;;;14.64;49.30;99983.12;52406;1279;1019779;-65
2022/05/29 09:04:29;;;;;;;8.40;0.70;;;;;;;14.79;49.62;99982.94;52455;1281;1016622;-65
2022/05/29 09:07:01;;;;;;;5.70;0.60;;;;;;;14.89;49.67;99978.57;52401;1281;1016662;-65
2022/05/29 09:09:39;;;;;;;5.70;0.60;;;;;;;15.01;49.21;99984.79;52567;1273;1016483;-65
2022/05/29 09:12:13;;;;;;;7.20;0.70;;;;;;;15.13;48.83;99981.77;52674;1274;1016339;-65
2022/05/29 09:14:48;;;;;;;10.50;0.60;;;;;;;15.28;47.90;99983.14;52492;1273;1016847;-65
2022/05/29 09:17:24;;;;;;;8.50;0.50;;;;;;;15.46;48.76;99975.15;52577;1274;1016636;-65
2022/05/29 09:19:58;;;;;;;5.50;0.50;;;;;;;15.72;48.29;99971.73;52521;1273;1016852;-65
2022/05/29 09:22:29;;;;;;;6.00;0.50;;;;;;;15.94;48.36;99968.05;52649;1273;1016608;-65
2022/05/29 09:25:04;;;;;;;6.80;0.70;;;;;;;16.12;47.96;99969.00;52578;1274;1016845;-65
2022/05/29 09:27:36;;;;;;;4.00;0.50;;;;;;;16.11;47.30;99967.27;52485;1274;1016316;-65
2022/05/29 09:30:08;;;;;;;5.20;0.50;;;;;;;16.05;47.31;99968.65;53098;1273;1016839;-67
2022/05/29 09:32:47;;;;;;;5.70;0.50;;;;;;;15.96;46.70;99968.30;52652;1274;1016734;-65
2022/05/29 09:35:24;;;;;;;5.30;0.80;;;;;;;15.80;46.27;99964.42;52473;1273;1016785;-66
2022/05/29 09:38:00;;;;;;;16.00;0.60;;;;;;;15.68;46.16;99957.34;52575;1273;1016069;-66
2022/05/29 09:40:33;;;;;;;4.10;0.40;;;;;;;15.73;46.56;99956.08;52539;1273;1016459;-65
2022/05/29 09:43:17;;;;;;;3.30;0.30;;;;;;;15.78;46.38;99947.95;52681;1274;1018138;-65
2022/05/29 09:45:46;;;;;;;5.10;0.50;;;;;;;15.93;46.23;99942.73;52481;1273;1016683;-65
2022/05/29 09:51:18;;;;;;;4.10;0.50;;;;;;;16.17;45.25;99946.13;52525;1274;1016535;-66
2022/05/29 09:53:52;;;;;;;3.70;0.40;;;;;;;16.15;45.48;99939.75;52482;1276;1018313;-66
2022/05/29 09:56:31;;;;;;;3.30;0.40;;;;;;;16.12;45.03;99941.51;52411;1274;1016609;-66
2022/05/29 09:59:04;;;;;;;2.70;0.40;;;;;;;16.10;44.72;99938.97;52873;1273;1016616;-65
2022/05/29 10:01:37;;;;;;;4.50;0.50;;;;;;;16.01;44.03;99936.38;52433;1273;1016289;-65
2022/05/29 10:04:11;;;;;;;6.40;0.60;;;;;;;15.85;44.58;99937.23;52638;1273;1016603;-66
2022/05/29 10:06:43;;;;;;;6.80;0.60;;;;;;;15.77;44.17;99942.48;52531;1273;1019102;-66
2022/05/29 10:09:17;;;;;;;6.80;0.50;;;;;;;15.72;44.61;99944.16;52710;1273;1016580;-66
2022/05/29 10:11:48;;;;;;;5.80;0.60;;;;;;;15.69;44.47;99949.14;52389;1273;1016758;-67
2022/05/29 10:14:37;;;;;;;2.80;0.40;;;;;;;15.64;44.21;99956.19;52340;1273;1016742;-66
2022/05/29 10:17:15;;;;;;;7.10;0.50;;;;;;;15.60;44.34;99963.06;52569;1273;1016541;-66
2022/05/29 10:19:47;;;;;;;5.60;0.60;;;;;;;15.51;44.04;99965.33;52583;1273;1016353;-66
2022/05/29 10:22:21;;;;;;;4.40;1.10;;;;;;;15.48;44.38;99959.09;52553;1274;1016403;-67
2022/05/29 10:24:51;;;;;;;5.10;0.40;;;;;;;15.52;45.04;99960.25;52477;1273;1016431;-66
2022/05/29 10:27:31;;;;;;;4.10;0.40;;;;;;;15.60;45.37;99959.64;52535;1274;1016178;-66
2022/05/29 10:30:04;;;;;;;6.40;0.40;;;;;;;15.80;45.83;99951.06;53324;1274;1016227;-66
2022/05/29 10:32:37;;;;;;;4.60;0.40;;;;;;;16.04;45.13;99945.05;53160;1273;1016633;-66
2022/05/29 10:35:21;;;;;;;3.90;0.40;;;;;;;16.19;44.63;99948.78;52491;1276;1019093;-67
2022/05/29 10:37:52;;;;;;;6.90;0.50;;;;;;;16.16;44.01;99945.82;52428;1276;1016679;-66
2022/05/29 10:40:25;;;;;;;5.20;0.40;;;;;;;16.13;44.25;99948.21;52400;1275;1016410;-66
2022/05/29 10:42:59;;;;;;;3.90;0.40;;;;;;;16.15;44.26;99944.51;52557;1274;1016566;-67
2022/05/29 10:45:34;;;;;;;5.60;0.50;;;;;;;16.19;43.99;99939.51;52434;1275;1018970;-66
2022/05/29 10:48:27;;;;;;;7.90;0.70;;;;;;;16.22;42.97;99937.27;52427;1273;1016289;-66
2022/05/29 10:51:08;;;;;;;3.80;0.40;;;;;;;16.20;43.61;99937.55;52507;1273;1016510;-66
2022/05/29 10:54:01;;;;;;;2.20;0.30;;;;;;;16.17;43.20;99939.83;52390;1274;1018292;-66
2022/05/29 10:56:44;;;;;;;5.20;0.60;;;;;;;16.19;43.20;99938.07;52617;1274;1017955;31
2022/05/29 10:59:28;;;;;;;3.70;0.30;;;;;;;16.26;43.10;99939.04;52444;1274;1016513;-56
2022/05/29 11:05:21;;;;;;;7.90;1.00;;;;;;;16.31;42.91;99932.03;52646;1274;1019074;-52
2022/05/29 11:08:08;;;;;;;7.90;0.70;;;;;;;16.38;42.53;99926.08;52585;1273;1016107;-50
2022/05/29 11:11:10;;;;;;;8.10;0.50;;;;;;;16.42;42.94;99918.91;52543;1273;1015765;-54
2022/05/29 11:13:58;;;;;;;5.20;0.50;;;;;;;16.46;42.33;99917.08;52601;1274;1016633;-54
2022/05/29 11:16:41;;;;;;;3.70;0.40;;;;;;;16.47;42.21;99918.96;52673;1275;1015840;-51
2022/05/29 11:19:36;;;;;;;5.00;0.50;;;;;;;16.50;42.00;99910.91;52561;1274;1016454;-50
2022/05/29 11:22:21;;;;;;;4.90;0.40;;;;;;;16.51;41.55;99913.16;52583;1274;1016439;-54
2022/05/29 11:25:09;;;;;;;3.10;0.40;;;;;;;16.49;41.85;99907.23;52584;1274;1016266;-52
2022/05/29 11:27:53;;;;;;;3.70;0.40;;;;;;;16.55;42.44;99909.38;52617;1274;1016916;-50
2022/05/29 11:30:31;;;;;;;2.60;0.30;;;;;;;16.65;42.39;99901.98;52523;1276;1016680;-50
2022/05/29 11:33:22;;;;;;;2.90;0.40;;;;;;;16.76;42.44;99900.02;52537;1277;1016163;-51
2022/05/29 11:36:12;;;;;;;4.70;0.60;;;;;;;16.83;42.08;99894.00;52590;1274;1016563;-51
2022/05/29 11:39:22;;;;;;;7.20;1.00;;;;;;;16.86;41.65;99893.10;52619;1274;1016614;-52
2022/05/29 11:41:55;;;;;;;7.70;0.80;;;;;;;16.80;41.08;99894.60;52526;1281;1015847;-52
2022/05/29 11:44:31;;;;;;;4.40;0.70;;;;;;;16.73;40.88;99877.35;52403;1281;1016265;-52
2022/05/29 11:52:53;;;;;;;4.60;0.80;;;;;;;16.80;41.22;99871.63;52331;1282;1016111;-53
2022/05/29 11:55:26;;;;;;;9.00;0.50;;;;;;;16.85;41.31;99869.52;52612;1281;1016364;-51
2022/05/29 11:58:00;;;;;;;5.10;0.60;;;;;;;16.98;41.76;99869.21;52280;1281;1020052;-53
2022/05/29 12:00:38;;;;;;;3.90;0.60;;;;;;;17.14;41.79;99870.70;52109;1281;1016089;-53
2022/05/29 12:03:19;;;;;;;5.80;0.50;;;;;;;17.27;41.43;99869.58;52501;1281;1016295;-56
2022/05/29 12:05:52;;;;;;;6.60;0.50;;;;;;;17.42;41.71;99866.60;52259;1281;1016136;-52
2022/05/29 12:08:30;;;;;;;5.80;0.40;;;;;;;17.56;40.66;99866.73;52315;1281;1016325;-51
2022/05/29 12:11:05;;;;;;;2.90;0.50;;;;;;;17.55;40.56;99856.84;52260;1281;1016949;-53
2022/05/29 12:13:41;;;;;;;5.00;0.50;;;;;;;17.55;40.42;99857.40;52284;1282;1016637;-52
2022/05/29 12:16:13;;;;;;;1.90;0.30;;;;;;;17.57;40.17;99855.63;52311;1281;1016694;-51
2022/05/29 12:18:47;;;;;;;6.10;0.40;;;;;;;17.48;39.39;99860.00;52712;1274;1016359;-55
2022/05/29 12:21:24;;;;;;;3.60;0.50;;;;;;;17.33;39.23;99868.61;52447;1274;1018271;-51
2022/05/29 12:23:57;;;;;;;8.60;1.10;;;;;;;17.19;39.50;99862.05;52424;1274;1017941;-51